createdAt,value
2024-04-21T00:01:30.079Z,3.53
2024-04-21T00:03:56.906Z,5.68
2024-04-21T00:06:23.585Z,4.35
2024-04-21T00:08:50.165Z,6.88
2024-04-21T00:11:17.312Z,2.00
2024-04-21T00:13:43.935Z,4.13
2024-04-21T00:16:10.979Z,5.03
2024-04-21T00:18:37.592Z,1.20
2024-04-21T00:21:10.156Z,2.25
2024-04-21T00:23:38.544Z,1.17
2024-04-21T00:26:05.660Z,3.25
2024-04-21T00:28:32.719Z,3.92
2024-04-21T00:30:59.878Z,6.50
2024-04-21T00:33:26.894Z,4.63
2024-04-21T00:35:53.532Z,7.55
2024-04-21T00:38:20.241Z,1.73
2024-04-21T00:40:46.820Z,2.22
2024-04-21T00:43:13.969Z,4.88
2024-04-21T00:45:47.994Z,5.15
2024-04-21T00:48:15.565Z,3.15
2024-04-21T00:50:47.681Z,7.50
2024-04-21T00:53:17.654Z,3.13
2024-04-21T00:55:44.895Z,3.67
2024-04-21T00:58:15.071Z,7.97
2024-04-21T01:00:45.557Z,3.45
2024-04-21T01:03:12.436Z,5.13
2024-04-21T01:05:39.045Z,3.90
2024-04-21T01:08:07.122Z,4.70
2024-04-21T01:10:33.717Z,1.67
2024-04-21T01:13:00.720Z,2.03
2024-04-21T01:15:27.354Z,2.63
2024-04-21T01:17:54.027Z,1.25
2024-04-21T01:20:22.635Z,2.92
2024-04-21T01:22:50.628Z,5.20
2024-04-21T01:25:18.012Z,1.65
2024-04-21T01:27:44.903Z,3.08
2024-04-21T01:30:11.631Z,3.25
2024-04-21T01:32:41.316Z,4.07
2024-04-21T01:35:08.383Z,12.15
2024-04-21T01:37:36.730Z,11.75
2024-04-21T01:40:04.583Z,3.72
2024-04-21T01:42:31.169Z,8.52
2024-04-21T01:44:57.779Z,6.05
2024-04-21T01:47:24.403Z,3.60
2024-04-21T01:49:51.109Z,3.85
2024-04-21T01:52:17.841Z,3.15
2024-04-21T01:54:44.438Z,3.67
2024-04-21T01:57:11.125Z,3.10
2024-04-21T01:59:37.685Z,8.40
2024-04-21T02:02:04.705Z,3.22
2024-04-21T02:04:31.909Z,1.90
2024-04-21T02:06:58.973Z,2.92
2024-04-21T02:09:25.694Z,3.80
2024-04-21T02:11:52.287Z,3.03
2024-04-21T02:14:18.901Z,6.75
2024-04-21T02:16:45.526Z,3.72
2024-04-21T02:19:12.187Z,6.53
2024-04-21T02:21:38.801Z,5.30
2024-04-21T02:24:05.834Z,10.25
2024-04-21T02:26:33.788Z,4.35
2024-04-21T02:29:00.433Z,4.50
2024-04-21T02:31:27.030Z,6.63
2024-04-21T02:33:53.670Z,4.55
2024-04-21T02:36:20.252Z,3.08
2024-04-21T02:38:46.978Z,2.63
2024-04-21T02:41:13.681Z,3.33
2024-04-21T02:43:40.356Z,12.85
2024-04-21T02:46:07.673Z,5.57
2024-04-21T02:48:34.486Z,3.45
2024-04-21T02:51:01.599Z,2.40
2024-04-21T02:53:28.212Z,2.10
2024-04-21T02:55:54.841Z,2.28
2024-04-21T02:58:21.588Z,2.35
2024-04-21T03:00:48.354Z,2.15
2024-04-21T03:03:17.995Z,1.42
2024-04-21T03:05:56.624Z,2.50
2024-04-21T03:08:23.563Z,0.82
2024-04-21T03:10:50.226Z,2.55
2024-04-21T03:13:16.935Z,1.58
2024-04-21T03:15:43.594Z,2.50
2024-04-21T03:18:10.241Z,0.65
2024-04-21T03:20:36.825Z,0.77
2024-04-21T03:23:03.746Z,0.60
2024-04-21T03:25:30.423Z,0.52
2024-04-21T03:27:57.089Z,0.30
2024-04-21T03:30:29.178Z,0.70
2024-04-21T03:32:55.916Z,0.50
2024-04-21T03:35:22.593Z,0.50
2024-04-21T03:37:49.199Z,1.77
2024-04-21T03:40:15.871Z,1.50
2024-04-21T03:42:42.554Z,1.70
2024-04-21T03:45:12.965Z,0.90
2024-04-21T03:47:39.572Z,2.97
2024-04-21T03:50:07.199Z,3.28
2024-04-21T03:52:33.915Z,5.53
2024-04-21T03:55:00.606Z,1.45
2024-04-21T03:57:31.190Z,1.83
2024-04-21T04:00:07.453Z,2.05
2024-04-21T04:02:34.130Z,6.15
2024-04-21T04:05:00.773Z,2.55
2024-04-21T04:07:27.485Z,1.20
2024-04-21T04:09:54.124Z,1.13
2024-04-21T04:12:20.841Z,4.95
2024-04-21T04:14:47.514Z,0.95
2024-04-21T04:17:14.149Z,2.60
2024-04-21T04:19:40.764Z,0.98
2024-04-21T04:22:08.264Z,0.93
2024-04-21T04:24:35.033Z,2.10
2024-04-21T04:27:01.675Z,3.35
2024-04-21T04:29:28.259Z,2.60
2024-04-21T04:31:54.937Z,5.15
2024-04-21T04:34:21.537Z,4.30
2024-04-21T04:36:48.468Z,0.77
2024-04-21T04:39:15.105Z,2.50
2024-04-21T04:41:41.702Z,1.20
2024-04-21T04:44:08.323Z,4.18
2024-04-21T04:46:34.973Z,1.17
2024-04-21T04:49:02.482Z,3.10
2024-04-21T04:51:29.113Z,1.42
2024-04-21T04:53:55.686Z,1.55
2024-04-21T04:56:22.316Z,0.30
2024-04-21T04:58:52.257Z,1.08
2024-04-21T05:01:19.002Z,0.85
2024-04-21T05:03:46.503Z,10.15
2024-04-21T05:06:13.221Z,1.23
2024-04-21T05:08:40.584Z,0.80
2024-04-21T05:11:07.204Z,0.80
2024-04-21T05:13:34.327Z,1.13
2024-04-21T05:16:00.920Z,0.90
2024-04-21T05:18:27.563Z,0.52
2024-04-21T05:20:56.379Z,1.35
2024-04-21T05:23:23.163Z,2.45
2024-04-21T05:25:51.049Z,0.60
2024-04-21T05:28:21.310Z,1.52
2024-04-21T05:30:52.670Z,2.42
2024-04-21T05:33:19.305Z,3.53
2024-04-21T05:35:46.079Z,3.15
2024-04-21T05:38:12.731Z,2.00
2024-04-21T05:40:39.410Z,1.38
2024-04-21T05:43:06.115Z,2.05
2024-04-21T05:45:32.742Z,1.08
2024-04-21T05:47:59.453Z,2.03
2024-04-21T05:50:26.111Z,1.23
2024-04-21T05:52:53.248Z,1.52
2024-04-21T05:55:19.911Z,1.58
2024-04-21T05:57:46.551Z,0.63
2024-04-21T06:00:13.397Z,0.75
2024-04-21T06:02:40.027Z,0.90
2024-04-21T06:05:06.921Z,0.95
2024-04-21T06:07:33.703Z,0.60
2024-04-21T06:10:00.988Z,1.50
2024-04-21T06:12:27.643Z,0.82
2024-04-21T06:14:54.234Z,1.98
2024-04-21T06:17:20.891Z,2.00
2024-04-21T06:19:47.577Z,2.67
2024-04-21T06:22:15.728Z,0.80
2024-04-21T06:24:42.463Z,1.58
2024-04-21T06:27:09.044Z,4.20
2024-04-21T06:29:35.603Z,0.95
2024-04-21T06:32:02.214Z,2.92
2024-04-21T06:34:28.891Z,1.25
2024-04-21T06:36:55.551Z,2.97
2024-04-21T06:39:22.234Z,1.73
2024-04-21T06:41:48.827Z,4.15
2024-04-21T06:44:15.424Z,1.10
2024-04-21T06:46:42.022Z,3.53
2024-04-21T06:49:08.628Z,5.05
2024-04-21T06:51:36.982Z,2.30
2024-04-21T06:54:04.358Z,2.78
2024-04-21T06:56:32.455Z,1.60
2024-04-21T06:59:09.060Z,3.40
2024-04-21T07:12:33.682Z,3.33
2024-04-21T07:15:25.467Z,4.68
2024-04-21T07:17:52.301Z,2.80
2024-04-21T07:20:23.240Z,7.75
2024-04-21T07:23:13.780Z,3.60
2024-04-21T07:25:44.652Z,3.90
2024-04-21T07:28:12.089Z,6.65
2024-04-21T07:30:40.580Z,5.40
2024-04-21T07:33:15.768Z,3.45
2024-04-21T07:35:49.956Z,3.40
2024-04-21T07:38:22.042Z,3.20
2024-04-21T07:40:48.902Z,5.28
2024-04-21T07:43:20.328Z,4.90
2024-04-21T07:45:47.867Z,7.95
2024-04-21T07:48:14.715Z,6.05
2024-04-21T07:50:44.690Z,5.78
2024-04-21T07:53:12.047Z,6.47
2024-04-21T07:55:39.508Z,4.57
2024-04-21T07:58:08.003Z,3.25
2024-04-21T08:00:39.427Z,4.15
2024-04-21T08:03:06.388Z,4.72
2024-04-21T08:05:34.816Z,5.13
2024-04-21T08:08:01.457Z,4.80
2024-04-21T08:10:30.837Z,3.45
2024-04-21T08:13:03.028Z,5.15
2024-04-21T08:15:42.074Z,6.55
2024-04-21T08:18:10.256Z,3.20
2024-04-21T08:20:39.951Z,4.43
2024-04-21T08:23:09.723Z,3.60
2024-04-21T08:25:51.703Z,3.92
2024-04-21T08:28:18.775Z,6.07
2024-04-21T08:30:46.824Z,5.25
2024-04-21T08:33:14.954Z,3.50
2024-04-21T08:35:45.300Z,4.30
2024-04-21T08:38:12.676Z,4.57
2024-04-21T08:40:44.206Z,4.40
2024-04-21T08:43:12.066Z,3.90
2024-04-21T08:45:41.190Z,3.95
2024-04-21T08:48:08.307Z,4.18
2024-04-21T08:50:38.009Z,5.80
2024-04-21T08:53:08.962Z,5.97
2024-04-21T08:55:41.001Z,3.15
2024-04-21T08:58:10.301Z,4.30
2024-04-21T09:00:42.513Z,6.78
2024-04-21T09:03:09.859Z,4.20
2024-04-21T09:05:48.633Z,4.15
2024-04-21T09:08:29.013Z,4.05
2024-04-21T09:10:57.738Z,4.50
2024-04-21T09:13:25.491Z,3.78
2024-04-21T09:16:02.394Z,4.55
2024-04-21T09:18:39.998Z,3.20
2024-04-21T09:21:13.854Z,3.13
2024-04-21T09:23:44.005Z,4.22
2024-04-21T09:26:11.765Z,4.50
2024-04-21T09:28:41.073Z,3.97
2024-04-21T09:31:08.968Z,5.97
2024-04-21T09:33:36.778Z,4.80
2024-04-21T09:36:06.804Z,3.55
2024-04-21T09:38:40.749Z,2.63
2024-04-21T09:41:16.182Z,3.92
2024-04-21T09:43:47.031Z,3.97
2024-04-21T09:46:17.901Z,3.47
2024-04-21T09:48:47.566Z,3.40
2024-04-21T09:51:16.587Z,3.78
2024-04-21T09:53:50.060Z,3.28
2024-04-21T09:56:24.495Z,5.35
2024-04-21T09:58:56.069Z,4.30
2024-04-21T10:01:34.467Z,4.05
2024-04-21T10:04:04.252Z,3.30
2024-04-21T10:06:32.767Z,4.88
2024-04-21T10:09:02.405Z,3.72
2024-04-21T10:13:59.911Z,2.50
2024-04-21T10:16:28.007Z,3.25
2024-04-21T10:19:04.979Z,2.20
2024-04-21T10:21:31.972Z,3.03
2024-04-21T10:24:00.319Z,3.58
2024-04-21T10:26:27.769Z,2.30
2024-04-21T10:28:54.814Z,2.20
2024-04-21T10:31:32.768Z,2.78
2024-04-21T10:34:14.844Z,2.70
2024-04-21T10:39:11.590Z,1.58
2024-04-21T10:41:47.824Z,3.30
2024-04-21T10:44:14.437Z,1.88
2024-04-21T10:46:41.339Z,1.90
2024-04-21T10:49:08.103Z,1.58
2024-04-21T10:51:36.550Z,1.65
2024-04-21T10:54:03.209Z,1.83
2024-04-21T10:56:29.844Z,2.17
2024-04-21T10:58:57.607Z,1.55
2024-04-21T11:01:27.661Z,1.95
2024-04-21T11:03:55.903Z,2.00
2024-04-21T11:06:22.752Z,1.52
2024-04-21T11:08:49.571Z,2.35
2024-04-21T11:11:17.498Z,2.78
2024-04-21T11:13:44.567Z,2.33
2024-04-21T11:16:12.510Z,2.65
2024-04-21T11:18:40.442Z,3.38
2024-04-21T11:21:07.646Z,2.05
2024-04-21T11:23:35.224Z,2.17
2024-04-21T11:26:02.309Z,2.42
2024-04-21T11:28:34.397Z,1.70
2024-04-21T11:31:48.393Z,3.20
2024-04-21T11:34:16.779Z,2.30
2024-04-21T11:36:43.927Z,1.52
2024-04-21T11:39:11.274Z,2.45
2024-04-21T11:41:38.000Z,1.90
2024-04-21T11:44:08.402Z,2.90
2024-04-21T11:46:36.525Z,1.65
2024-04-21T11:49:04.155Z,1.80
2024-04-21T11:51:32.415Z,2.00
2024-04-21T11:54:00.753Z,2.72
2024-04-21T11:56:28.044Z,3.50
2024-04-21T11:58:55.923Z,2.38
2024-04-21T12:01:32.347Z,1.90
2024-04-21T12:04:06.815Z,2.70
2024-04-21T12:06:34.483Z,1.98
2024-04-21T12:09:05.507Z,1.70
2024-04-21T12:11:32.842Z,2.30
2024-04-21T12:14:26.593Z,2.47
2024-04-21T12:16:56.175Z,1.88
2024-04-21T12:19:22.951Z,2.88
2024-04-21T12:21:49.750Z,2.22
2024-04-21T12:24:16.405Z,1.85
2024-04-21T12:26:49.342Z,1.92
2024-04-21T12:29:16.821Z,2.42
2024-04-21T12:31:43.859Z,2.22
2024-04-21T12:34:11.117Z,1.65
2024-04-21T12:36:40.022Z,2.65
2024-04-21T12:39:10.425Z,2.45
2024-04-21T12:41:37.444Z,2.55
2024-04-21T12:44:04.184Z,1.95
2024-04-21T12:46:32.044Z,2.97
2024-04-21T12:49:00.444Z,3.13
2024-04-21T12:51:27.549Z,1.23
2024-04-21T12:53:54.290Z,2.40
2024-04-21T12:56:23.027Z,2.53
2024-04-21T12:58:49.940Z,2.40
2024-04-21T13:01:17.922Z,2.67
2024-04-21T13:03:45.166Z,2.15
2024-04-21T13:06:16.734Z,4.25
2024-04-21T13:08:43.426Z,2.13
2024-04-21T13:11:10.338Z,2.15
2024-04-21T13:13:37.061Z,2.85
2024-04-21T13:16:04.059Z,1.60
2024-04-21T13:18:30.749Z,2.70
2024-04-21T13:20:59.491Z,1.38
2024-04-21T13:24:12.937Z,2.28
2024-04-21T13:26:45.260Z,1.58
2024-04-21T13:29:13.017Z,2.15
2024-04-21T13:31:39.777Z,1.90
2024-04-21T13:34:06.729Z,1.77
2024-04-21T13:36:39.438Z,1.90
2024-04-21T13:39:07.417Z,1.00
2024-04-21T13:41:35.553Z,3.20
2024-04-21T13:44:04.108Z,1.40
2024-04-21T13:46:33.820Z,2.03
2024-04-21T13:49:00.594Z,1.98
2024-04-21T13:51:31.880Z,1.60
2024-04-21T13:54:01.322Z,2.60
2024-04-21T13:56:28.058Z,1.73
2024-04-21T13:58:59.340Z,1.30
2024-04-21T14:01:26.062Z,1.13
2024-04-21T14:03:52.995Z,1.40
2024-04-21T14:06:22.234Z,1.52
2024-04-21T14:08:49.598Z,1.73
2024-04-21T14:11:17.967Z,2.75
2024-04-21T14:13:45.552Z,2.80
2024-04-21T14:16:13.604Z,1.40
2024-04-21T14:18:40.434Z,1.60
2024-04-21T14:21:07.182Z,1.30
2024-04-21T14:23:37.138Z,1.52
2024-04-21T14:26:06.982Z,1.73
2024-04-21T14:28:33.685Z,2.25
2024-04-21T14:31:00.846Z,1.80
2024-04-21T14:33:28.361Z,2.67
2024-04-21T14:35:57.003Z,1.67
2024-04-21T14:38:24.260Z,2.33
2024-04-21T14:40:52.503Z,1.58
2024-04-21T14:43:20.089Z,2.17
2024-04-21T14:45:50.051Z,2.10
2024-04-21T14:48:19.300Z,1.30
2024-04-21T14:51:04.304Z,1.92
2024-04-21T14:53:32.488Z,1.65
2024-04-21T14:56:01.549Z,0.80
2024-04-21T14:58:28.483Z,2.45
2024-04-21T15:00:55.540Z,1.98
2024-04-21T15:03:24.341Z,2.28
2024-04-21T15:05:50.985Z,1.67
2024-04-21T15:08:18.000Z,1.10
2024-04-21T15:10:44.937Z,1.90
2024-04-21T15:13:13.242Z,3.53
2024-04-21T15:15:39.905Z,2.35
2024-04-21T15:18:07.948Z,1.45
2024-04-21T15:20:34.683Z,1.20
2024-04-21T15:23:03.040Z,1.08
2024-04-21T15:25:29.743Z,1.20
2024-04-21T15:27:58.723Z,1.63
2024-04-21T15:30:26.334Z,2.30
2024-04-21T15:32:57.276Z,2.38
2024-04-21T15:35:24.065Z,1.60
2024-04-21T15:37:50.815Z,1.42
2024-04-21T15:40:17.834Z,2.80
2024-04-21T15:42:45.895Z,1.95
2024-04-21T15:45:15.387Z,1.85
2024-04-21T15:47:45.495Z,1.63
2024-04-21T15:50:15.980Z,2.45
2024-04-21T15:52:43.155Z,2.15
2024-04-21T15:55:13.049Z,1.70
2024-04-21T15:57:40.106Z,1.40
2024-04-21T16:00:07.546Z,1.02
2024-04-21T16:02:37.508Z,1.95
2024-04-21T16:05:08.696Z,1.85
2024-04-21T16:07:35.604Z,2.55
2024-04-21T16:10:04.931Z,3.10
2024-04-21T16:12:31.711Z,1.23
2024-04-21T16:15:01.312Z,17.33
2024-04-21T16:17:30.985Z,31.48
2024-04-21T16:19:57.667Z,29.08
2024-04-21T16:22:25.685Z,11.68
2024-04-21T16:24:55.258Z,5.60
2024-04-21T16:27:21.922Z,4.43
2024-04-21T16:29:48.562Z,2.65
2024-04-21T16:32:15.667Z,2.30
2024-04-21T16:34:47.969Z,4.20
2024-04-21T16:37:14.811Z,4.00
2024-04-21T16:39:59.246Z,3.42
2024-04-21T16:42:26.972Z,3.83
2024-04-21T16:44:54.521Z,4.68
2024-04-21T16:47:23.561Z,5.63
2024-04-21T16:49:50.550Z,4.10
2024-04-21T16:52:18.920Z,3.55
2024-04-21T16:54:46.738Z,2.90
2024-04-21T16:57:26.752Z,3.85
2024-04-21T16:59:54.847Z,5.25
2024-04-21T17:02:29.586Z,5.20
2024-04-21T17:05:01.728Z,3.63
2024-04-21T17:07:36.997Z,2.88
2024-04-21T17:10:06.498Z,2.83
2024-04-21T17:12:33.935Z,2.95
2024-04-21T17:15:00.587Z,2.35
2024-04-21T17:17:28.455Z,2.10
2024-04-21T17:19:56.871Z,3.47
2024-04-21T17:22:24.547Z,2.92
2024-04-21T17:24:51.494Z,2.78
2024-04-21T17:27:18.546Z,2.00
2024-04-21T17:29:45.178Z,2.92
2024-04-21T17:32:11.794Z,3.53
2024-04-21T17:34:38.622Z,2.00
2024-04-21T17:37:05.473Z,3.92
2024-04-21T17:39:35.408Z,2.67
2024-04-21T17:42:02.237Z,2.42
2024-04-21T17:44:28.929Z,3.30
2024-04-21T17:46:55.685Z,3.15
2024-04-21T17:49:23.275Z,2.60
2024-04-21T17:51:49.967Z,5.05
2024-04-21T17:54:24.402Z,2.90
2024-04-21T17:56:54.955Z,4.05
2024-04-21T17:59:22.851Z,1.95
2024-04-21T18:02:31.899Z,2.38
2024-04-21T18:10:50.801Z,4.70
2024-04-21T18:13:20.348Z,5.38
2024-04-21T18:15:47.852Z,3.33
2024-04-21T18:18:14.644Z,2.63
2024-04-21T18:20:41.366Z,2.83
2024-04-21T18:23:08.111Z,2.13
2024-04-21T18:25:34.776Z,4.82
2024-04-21T18:28:02.396Z,3.20
2024-04-21T18:30:29.122Z,3.97
2024-04-21T18:32:56.074Z,4.30
2024-04-21T18:35:23.601Z,3.45
2024-04-21T18:37:51.439Z,5.20
2024-04-21T18:40:21.755Z,3.45
2024-04-21T18:42:58.666Z,4.10
2024-04-21T18:45:30.675Z,6.05
2024-04-21T18:47:57.560Z,5.90
2024-04-21T18:50:26.767Z,6.38
2024-04-21T18:53:01.905Z,3.30
2024-04-21T18:55:34.800Z,4.90
2024-04-21T18:58:09.481Z,3.28
2024-04-21T19:00:39.262Z,3.70
2024-04-21T19:03:13.331Z,3.20
2024-04-21T19:05:45.206Z,2.33
2024-04-21T19:08:17.398Z,2.40
2024-04-21T19:10:46.777Z,3.97
2024-04-21T19:13:30.002Z,3.95
2024-04-21T19:16:05.198Z,2.53
2024-04-21T19:18:35.498Z,3.75
2024-04-21T19:21:09.239Z,3.00
2024-04-21T19:23:39.382Z,3.95
2024-04-21T19:26:10.374Z,2.20
2024-04-21T19:28:42.445Z,3.05
2024-04-21T19:31:09.458Z,3.20
2024-04-21T19:33:39.991Z,1.92
2024-04-21T19:36:09.489Z,2.13
2024-04-21T19:38:42.396Z,3.58
2024-04-21T19:41:14.193Z,3.13
2024-04-21T19:44:03.184Z,3.08
2024-04-21T19:48:58.641Z,5.55
2024-04-21T19:51:32.120Z,5.97
2024-04-21T19:54:01.242Z,3.97
2024-04-21T19:56:39.481Z,4.97
2024-04-21T19:59:13.576Z,3.45
2024-04-21T20:01:44.478Z,2.75
2024-04-21T20:04:14.100Z,5.95
2024-04-21T20:06:40.849Z,5.43
2024-04-21T20:09:07.679Z,6.82
2024-04-21T20:11:34.277Z,6.15
2024-04-21T20:14:02.085Z,6.00
2024-04-21T20:16:47.448Z,4.40
2024-04-21T20:19:15.215Z,4.18
2024-04-21T20:21:41.859Z,4.25
2024-04-21T20:24:08.812Z,2.55
2024-04-21T20:26:35.566Z,3.60
2024-04-21T20:29:02.153Z,3.10
2024-04-21T20:31:28.810Z,3.95
2024-04-21T20:33:55.487Z,3.08
2024-04-21T20:36:23.489Z,4.40
2024-04-21T20:38:51.645Z,2.47
2024-04-21T20:41:22.092Z,3.05
2024-04-21T20:43:49.604Z,2.22
2024-04-21T20:46:28.444Z,2.85
2024-04-21T20:48:55.189Z,4.20
2024-04-21T20:51:23.597Z,3.20
2024-04-21T20:53:50.273Z,3.55
2024-04-21T20:56:18.225Z,3.70
2024-04-21T20:58:52.541Z,2.40
2024-04-21T21:01:27.719Z,4.00
2024-04-21T21:03:54.431Z,2.22
2024-04-21T21:06:21.176Z,3.17
2024-04-21T21:08:48.432Z,2.90
2024-04-21T21:11:17.442Z,2.72
2024-04-21T21:13:44.227Z,1.70
2024-04-21T21:16:10.902Z,5.00
2024-04-21T21:18:37.982Z,6.20
2024-04-21T21:21:06.795Z,2.80
2024-04-21T21:23:35.514Z,3.97
2024-04-21T21:26:08.126Z,3.53
2024-04-21T21:28:34.873Z,5.28
2024-04-21T21:31:03.175Z,4.15
2024-04-21T21:33:29.777Z,4.07
2024-04-21T21:35:57.481Z,3.95
2024-04-21T21:38:25.440Z,5.22
2024-04-21T21:40:52.847Z,3.78
2024-04-21T21:43:19.621Z,3.47
2024-04-21T21:45:46.790Z,2.08
2024-04-21T21:48:13.521Z,2.78
2024-04-21T21:50:40.525Z,2.83
2024-04-21T21:53:08.390Z,3.00
2024-04-21T21:55:34.989Z,3.72
2024-04-21T21:58:01.657Z,1.90
2024-04-21T22:00:28.524Z,2.92
2024-04-21T22:02:55.583Z,3.28
2024-04-21T22:05:23.015Z,4.70
2024-04-21T22:07:52.525Z,6.22
2024-04-21T22:10:22.711Z,2.65
2024-04-21T22:12:50.431Z,2.63
2024-04-21T22:15:17.998Z,2.65
2024-04-21T22:17:44.745Z,3.65
2024-04-21T22:20:11.473Z,5.18
2024-04-21T22:22:41.376Z,4.97
2024-04-21T22:25:08.071Z,3.75
2024-04-21T22:27:34.834Z,4.18
2024-04-21T22:30:05.183Z,5.45
2024-04-21T22:32:31.986Z,3.38
2024-04-21T22:34:58.670Z,4.20
2024-04-21T22:37:25.333Z,3.63
2024-04-21T22:39:54.326Z,5.65
2024-04-21T22:42:20.983Z,2.17
2024-04-21T22:44:47.613Z,4.93
2024-04-21T22:47:14.296Z,3.05
2024-04-21T22:49:41.032Z,3.72
2024-04-21T22:52:07.731Z,3.85
2024-04-21T22:54:35.504Z,3.13
2024-04-21T22:57:03.186Z,7.38
2024-04-21T22:59:34.053Z,3.85
2024-04-21T23:02:02.117Z,3.38
2024-04-21T23:04:29.529Z,2.80
2024-04-21T23:06:57.137Z,2.70
2024-04-21T23:09:24.154Z,3.67
2024-04-21T23:11:50.837Z,2.95
2024-04-21T23:14:17.466Z,3.42
2024-04-21T23:16:46.731Z,2.25
2024-04-21T23:19:13.405Z,3.63
2024-04-21T23:21:40.004Z,3.22
2024-04-21T23:24:06.845Z,2.65
2024-04-21T23:26:33.522Z,3.13
2024-04-21T23:29:00.160Z,3.08
2024-04-21T23:31:27.874Z,4.10
2024-04-21T23:33:54.535Z,3.58
2024-04-21T23:36:21.089Z,4.07
2024-04-21T23:38:47.695Z,4.40
2024-04-21T23:41:14.299Z,2.78
2024-04-21T23:43:40.880Z,5.07
2024-04-21T23:46:08.966Z,4.72
2024-04-21T23:48:35.937Z,2.63
2024-04-21T23:51:02.594Z,4.57
2024-04-21T23:53:29.193Z,3.20
2024-04-21T23:55:55.789Z,3.33
2024-04-21T23:58:22.532Z,3.70
